Assonet, Massachusetts
Current Conditions -  °F | °C
As of 9:52 PM on Saturday 20 Dec 2014 (Local Time) from KTAN Reporting Station
Light Rain Light Rain  
Wind Chill: 30°   Ceiling: 1700
Heat Index: 34°   Visibility: 5mi
Dew Point: 32°   Wind: 5mph
Humidity: 92%   Direction: 310°NW
Pressure: 30.27"   Gusts: NA
Location:  41.8°N, 71.07°W
Report Text: KTAN 210252Z AUTO 31004KT 5SM -RA BR FEW004 OVC017 01/00 A3027 RMK AO2 RAB12E16B35SNE0154B16E47 SLP250 P0000 60001 T00110000 56003
Loading
Personal Weather Stations






























Interactive Weather Map New forecast layout! Learn more

10-Day Weather Forecast

Advertisements
Track Severe Weather on mobile